createdAt,value
2023-12-10T00:01:59.956Z,19.33
2023-12-10T00:05:04.238Z,19.15
2023-12-10T00:08:06.822Z,19.27
2023-12-10T00:11:09.451Z,18.17
2023-12-10T00:14:12.058Z,19.50
2023-12-10T00:17:14.587Z,17.38
2023-12-10T00:20:18.452Z,18.02
2023-12-10T00:23:21.584Z,16.85
2023-12-10T00:26:24.106Z,16.27
2023-12-10T00:29:26.690Z,16.13
2023-12-10T00:32:29.389Z,16.92
2023-12-10T00:35:33.457Z,16.50
2023-12-10T00:38:35.980Z,15.25
2023-12-10T00:41:39.213Z,16.63
2023-12-10T00:44:41.750Z,16.20
2023-12-10T00:47:44.344Z,15.77
2023-12-10T00:50:48.686Z,16.25
2023-12-10T00:53:52.008Z,16.17
2023-12-10T00:56:54.535Z,15.27
2023-12-10T00:59:57.516Z,14.80
2023-12-10T01:03:00.103Z,13.68
2023-12-10T01:06:05.253Z,13.43
2023-12-10T01:09:10.033Z,13.50
2023-12-10T01:12:12.607Z,14.48
2023-12-10T01:15:15.141Z,13.63
2023-12-10T01:18:17.964Z,12.70
2023-12-10T01:21:21.909Z,14.32
2023-12-10T01:24:24.452Z,14.75
2023-12-10T01:27:27.085Z,14.02
2023-12-10T01:30:30.599Z,14.00
2023-12-10T01:33:33.511Z,14.70
2023-12-10T01:36:37.536Z,13.80
2023-12-10T01:39:40.064Z,13.57
2023-12-10T01:42:43.957Z,12.90
2023-12-10T01:45:50.170Z,13.35
2023-12-10T01:48:56.528Z,14.05
2023-12-10T01:52:00.518Z,13.00
2023-12-10T01:55:04.838Z,14.35
2023-12-10T01:58:07.671Z,12.38
2023-12-10T02:01:10.805Z,13.27
2023-12-10T02:04:14.100Z,12.55
2023-12-10T02:07:18.159Z,13.52
2023-12-10T02:10:20.706Z,14.68
2023-12-10T02:13:24.980Z,14.55
2023-12-10T02:16:27.721Z,13.80
2023-12-10T02:19:30.297Z,14.82
2023-12-10T02:22:34.883Z,15.80
2023-12-10T02:25:40.329Z,15.50
2023-12-10T02:28:43.676Z,17.23
2023-12-10T02:31:46.204Z,14.90
2023-12-10T02:34:48.789Z,15.80
2023-12-10T02:37:51.891Z,16.67
2023-12-10T02:40:55.933Z,15.48
2023-12-10T02:43:58.454Z,16.65
2023-12-10T02:47:00.982Z,16.92
2023-12-10T02:50:03.692Z,17.20
2023-12-10T02:53:06.718Z,16.77
2023-12-10T02:56:11.271Z,17.27
2023-12-10T02:59:13.957Z,17.08
2023-12-10T03:02:16.689Z,16.63
2023-12-10T03:05:19.244Z,16.48
2023-12-10T03:08:21.765Z,15.85
2023-12-10T03:11:25.592Z,17.38
2023-12-10T03:14:28.097Z,17.67
2023-12-10T03:17:30.683Z,16.00
2023-12-10T03:20:33.261Z,17.73
2023-12-10T03:23:35.766Z,17.88
2023-12-10T03:26:39.816Z,16.77
2023-12-10T03:29:42.323Z,17.80
2023-12-10T03:32:44.881Z,18.65
2023-12-10T03:35:47.449Z,17.95
2023-12-10T03:38:50.028Z,18.27
2023-12-10T03:41:54.917Z,18.25
2023-12-10T03:44:58.385Z,18.55
2023-12-10T03:48:00.925Z,18.63
2023-12-10T03:51:03.459Z,19.13
2023-12-10T03:54:06.264Z,18.25
2023-12-10T03:57:10.119Z,18.45
2023-12-10T04:00:13.215Z,17.58
2023-12-10T04:03:15.844Z,17.20
2023-12-10T04:06:19.447Z,18.98
2023-12-10T04:09:22.011Z,18.23
2023-12-10T04:12:26.035Z,18.92
2023-12-10T04:15:28.889Z,18.77
2023-12-10T04:18:31.540Z,18.13
2023-12-10T04:21:34.485Z,18.77
2023-12-10T04:24:37.127Z,18.75
2023-12-10T04:27:40.972Z,18.52
2023-12-10T04:30:43.565Z,18.38
2023-12-10T04:33:46.604Z,19.98
2023-12-10T04:36:49.551Z,18.85
2023-12-10T04:39:52.203Z,18.92
2023-12-10T04:42:56.084Z,19.05
2023-12-10T04:45:59.390Z,18.52
2023-12-10T04:49:02.045Z,18.65
2023-12-10T04:52:05.214Z,18.38
2023-12-10T04:55:08.430Z,18.60
2023-12-10T04:58:12.281Z,18.48
2023-12-10T05:01:14.894Z,18.65
2023-12-10T05:04:17.554Z,19.58
2023-12-10T05:07:20.229Z,17.90
2023-12-10T05:10:23.143Z,17.85
2023-12-10T05:13:27.131Z,20.33
2023-12-10T05:16:29.734Z,18.00
2023-12-10T05:19:32.450Z,17.83
2023-12-10T05:22:35.213Z,17.17
2023-12-10T05:25:38.255Z,17.73
2023-12-10T05:28:42.085Z,16.85
2023-12-10T05:31:45.155Z,16.50
2023-12-10T05:34:47.829Z,17.23
2023-12-10T05:37:54.016Z,16.25
2023-12-10T05:40:56.528Z,18.10
2023-12-10T05:44:00.383Z,16.70
2023-12-10T05:47:03.783Z,16.75
2023-12-10T05:50:06.767Z,16.33
2023-12-10T05:53:09.275Z,16.80
2023-12-10T05:56:11.911Z,17.60
2023-12-10T05:59:16.213Z,16.95
2023-12-10T06:02:19.490Z,16.42
2023-12-10T06:05:22.547Z,17.00
2023-12-10T06:08:25.113Z,16.92
2023-12-10T06:11:27.640Z,15.52
2023-12-10T06:14:31.475Z,16.33
2023-12-10T06:17:34.056Z,17.13
2023-12-10T06:20:36.816Z,16.45
2023-12-10T06:23:39.319Z,16.27
2023-12-10T06:26:41.842Z,15.80
2023-12-10T06:29:45.741Z,15.55
2023-12-10T06:32:48.328Z,15.07
2023-12-10T06:35:51.196Z,14.77
2023-12-10T06:38:53.900Z,14.18
2023-12-10T06:41:56.438Z,14.85
2023-12-10T06:45:00.378Z,13.95
2023-12-10T06:48:04.790Z,12.82
2023-12-10T06:51:08.090Z,13.63
2023-12-10T06:54:11.574Z,13.32
2023-12-10T06:57:14.206Z,12.15
2023-12-10T07:00:21.127Z,12.80
2023-12-10T07:03:23.897Z,12.40
2023-12-10T07:06:26.494Z,11.90
2023-12-10T07:09:29.095Z,11.48
2023-12-10T07:12:32.215Z,12.98
2023-12-10T07:15:36.254Z,11.80
2023-12-10T07:18:39.003Z,12.15
2023-12-10T07:21:42.161Z,11.13
2023-12-10T07:24:44.845Z,13.07
2023-12-10T07:27:48.611Z,12.38
2023-12-10T07:30:53.391Z,12.68
2023-12-10T07:33:56.006Z,13.27
2023-12-10T07:36:58.716Z,11.48
2023-12-10T07:40:01.303Z,12.07
2023-12-10T07:43:03.988Z,11.93
2023-12-10T07:46:08.280Z,13.05
2023-12-10T07:49:10.915Z,13.38
2023-12-10T07:52:13.519Z,12.70
2023-12-10T07:55:16.898Z,13.70
2023-12-10T07:58:19.408Z,12.82
2023-12-10T08:01:23.313Z,12.90
2023-12-10T08:04:25.955Z,13.70
2023-12-10T08:07:28.482Z,12.18
2023-12-10T08:10:31.216Z,12.75
2023-12-10T08:13:33.770Z,13.18
2023-12-10T08:16:38.899Z,12.80
2023-12-10T08:19:41.987Z,13.18
2023-12-10T08:22:44.645Z,14.05
2023-12-10T08:25:47.277Z,12.65
2023-12-10T08:28:49.816Z,13.65
2023-12-10T08:31:53.648Z,12.73
2023-12-10T08:34:56.237Z,13.52
2023-12-10T08:37:59.023Z,15.55
2023-12-10T08:41:01.789Z,13.60
2023-12-10T08:44:04.353Z,13.48
2023-12-10T08:47:08.558Z,14.38
2023-12-10T08:50:11.562Z,13.70
2023-12-10T08:53:14.174Z,13.60
2023-12-10T08:56:16.790Z,14.63
2023-12-10T08:59:19.340Z,12.88
2023-12-10T09:02:23.175Z,14.27
2023-12-10T09:05:25.721Z,13.75
2023-12-10T09:08:28.301Z,14.20
2023-12-10T09:11:31.811Z,13.65
2023-12-10T09:14:34.449Z,14.00
2023-12-10T09:17:38.542Z,12.98
2023-12-10T09:20:41.161Z,14.57
2023-12-10T09:23:44.704Z,13.98
2023-12-10T09:26:47.273Z,13.98
2023-12-10T09:29:49.848Z,13.82
2023-12-10T09:32:53.812Z,12.77
2023-12-10T09:35:56.469Z,14.60
2023-12-10T09:38:59.010Z,14.90
2023-12-10T09:42:01.547Z,14.02
2023-12-10T09:45:04.669Z,14.13
2023-12-10T09:48:09.004Z,14.57
2023-12-10T09:51:11.693Z,13.07
2023-12-10T09:54:15.022Z,13.60
2023-12-10T09:57:17.772Z,13.15
2023-12-10T10:00:20.717Z,13.80
2023-12-10T10:03:25.067Z,13.07
2023-12-10T10:06:28.362Z,12.77
2023-12-10T10:09:35.416Z,12.55
2023-12-10T10:12:40.830Z,11.82
2023-12-10T10:15:43.597Z,13.10
2023-12-10T10:18:49.098Z,12.82
2023-12-10T10:21:52.132Z,11.43
2023-12-10T10:24:55.516Z,11.98
2023-12-10T10:27:58.128Z,13.07
2023-12-10T10:31:00.709Z,11.23
2023-12-10T10:34:06.757Z,11.95
2023-12-10T10:37:09.572Z,11.90
2023-12-10T10:40:12.768Z,11.57
2023-12-10T10:43:15.354Z,11.27
2023-12-10T10:46:20.442Z,11.52
2023-12-10T10:49:24.499Z,10.38
2023-12-10T10:52:29.097Z,11.40
2023-12-10T10:55:32.542Z,9.70
2023-12-10T10:58:35.089Z,11.50
2023-12-10T11:01:38.875Z,9.05
2023-12-10T11:04:43.208Z,9.45
2023-12-10T11:07:49.814Z,8.70
2023-12-10T11:10:59.595Z,7.97
2023-12-10T11:14:02.148Z,8.65
2023-12-10T11:17:07.786Z,8.10
2023-12-10T11:20:31.379Z,7.28
2023-12-10T11:23:34.961Z,7.72
2023-12-10T11:26:37.484Z,6.05
2023-12-10T11:29:40.104Z,6.68
2023-12-10T11:32:43.482Z,5.43
2023-12-10T11:36:17.510Z,4.90
2023-12-10T11:39:14.352Z,4.95
2023-12-10T11:42:16.888Z,4.03
2023-12-10T11:45:19.491Z,3.92
2023-12-10T11:48:22.466Z,4.10
2023-12-10T11:51:27.179Z,4.15
2023-12-10T11:54:29.999Z,3.13
2023-12-10T11:57:32.716Z,4.10
2023-12-10T12:00:35.904Z,3.72
2023-12-10T12:03:39.074Z,3.58
2023-12-10T12:06:44.538Z,3.25
2023-12-10T12:09:48.639Z,3.80
2023-12-10T12:12:52.249Z,3.25
2023-12-10T12:15:54.871Z,3.22
2023-12-10T12:18:57.608Z,3.08
2023-12-10T12:22:01.847Z,2.95
2023-12-10T12:25:04.767Z,2.45
2023-12-10T12:28:08.788Z,2.92
2023-12-10T12:31:11.324Z,2.75
2023-12-10T12:34:14.734Z,2.58
2023-12-10T12:37:18.843Z,2.90
2023-12-10T12:40:21.742Z,2.80
2023-12-10T12:43:24.275Z,2.97
2023-12-10T12:46:26.897Z,2.75
2023-12-10T12:49:29.540Z,2.60
2023-12-10T12:52:33.528Z,2.28
2023-12-10T12:55:36.175Z,3.47
2023-12-10T12:58:39.463Z,2.42
2023-12-10T13:01:42.097Z,2.60
2023-12-10T13:04:44.678Z,2.47
2023-12-10T13:07:48.523Z,2.83
2023-12-10T13:10:51.041Z,2.38
2023-12-10T13:13:53.857Z,1.65
2023-12-10T13:16:56.603Z,2.38
2023-12-10T13:19:59.149Z,2.65
2023-12-10T13:23:03.332Z,2.60
2023-12-10T13:26:05.906Z,2.47
2023-12-10T13:29:08.474Z,2.38
2023-12-10T13:32:11.715Z,2.40
2023-12-10T13:35:14.513Z,3.20
2023-12-10T13:38:18.510Z,1.95
2023-12-10T13:41:21.169Z,2.42
2023-12-10T13:44:23.836Z,2.50
2023-12-10T13:47:26.468Z,2.25
2023-12-10T13:50:29.156Z,2.10
2023-12-10T13:53:33.119Z,1.95
2023-12-10T13:56:35.656Z,2.83
2023-12-10T13:59:38.133Z,2.15
2023-12-10T14:02:40.972Z,2.63
2023-12-10T14:05:43.879Z,2.88
2023-12-10T14:08:50.651Z,2.35
2023-12-10T14:11:54.596Z,1.88
2023-12-10T14:14:57.211Z,1.80
2023-12-10T14:17:59.793Z,2.42
2023-12-10T14:21:02.789Z,2.00
2023-12-10T14:24:07.121Z,2.00
2023-12-10T14:27:09.656Z,2.03
2023-12-10T14:30:12.869Z,1.88
2023-12-10T14:33:15.529Z,2.38
2023-12-10T14:36:18.121Z,1.73
2023-12-10T14:39:23.986Z,2.17
2023-12-10T14:42:26.651Z,1.73
2023-12-10T14:45:29.280Z,1.60
2023-12-10T14:48:32.062Z,1.65
2023-12-10T14:51:34.860Z,1.90
2023-12-10T14:54:38.881Z,2.28
2023-12-10T14:57:41.509Z,1.85
2023-12-10T15:00:44.815Z,1.58
2023-12-10T15:03:47.573Z,1.88
2023-12-10T15:06:50.155Z,2.20
2023-12-10T15:09:54.036Z,1.48
2023-12-10T15:12:56.834Z,1.73
2023-12-10T15:15:59.529Z,1.55
2023-12-10T15:19:02.467Z,1.80
2023-12-10T15:22:05.636Z,1.20
2023-12-10T15:25:10.349Z,1.45
2023-12-10T15:28:13.165Z,1.50
2023-12-10T15:31:15.876Z,1.30
2023-12-10T15:34:18.471Z,1.20
2023-12-10T15:37:21.091Z,1.55
2023-12-10T15:40:25.589Z,2.08
2023-12-10T15:43:28.185Z,1.80
2023-12-10T15:46:30.672Z,1.60
2023-12-10T15:49:33.272Z,1.98
2023-12-10T15:52:40.874Z,2.05
2023-12-10T15:55:45.456Z,2.03
2023-12-10T15:58:48.054Z,1.75
2023-12-10T16:01:50.654Z,2.08
2023-12-10T16:04:53.162Z,2.30
2023-12-10T16:07:55.954Z,1.90
2023-12-10T16:10:59.981Z,2.28
2023-12-10T16:14:05.455Z,2.17
2023-12-10T16:17:11.106Z,2.60
2023-12-10T16:20:13.914Z,2.40
2023-12-10T16:23:16.646Z,2.30
2023-12-10T16:26:22.245Z,2.90
2023-12-10T16:29:24.887Z,2.95
2023-12-10T16:32:27.414Z,2.58
2023-12-10T16:35:29.937Z,2.55
2023-12-10T16:38:32.456Z,3.10
2023-12-10T16:41:36.788Z,3.05
2023-12-10T16:44:39.283Z,3.45
2023-12-10T16:47:41.994Z,4.05
2023-12-10T16:50:44.779Z,3.63
2023-12-10T16:53:47.271Z,3.28
2023-12-10T16:56:51.165Z,2.92
2023-12-10T16:59:53.686Z,2.47
2023-12-10T17:02:56.461Z,3.33
2023-12-10T17:05:59.199Z,3.35
2023-12-10T17:09:01.811Z,3.33
2023-12-10T17:12:06.821Z,3.55
2023-12-10T17:15:10.435Z,3.63
2023-12-10T17:18:13.077Z,3.88
2023-12-10T17:21:15.631Z,3.60
2023-12-10T17:24:19.434Z,4.15
2023-12-10T17:27:24.001Z,3.92
2023-12-10T17:30:26.643Z,3.42
2023-12-10T17:33:30.273Z,3.47
2023-12-10T17:36:32.992Z,4.00
2023-12-10T17:39:35.647Z,3.55
2023-12-10T17:42:39.590Z,3.53
2023-12-10T17:45:42.198Z,2.95
2023-12-10T17:48:45.260Z,2.88
2023-12-10T17:51:48.923Z,3.35
2023-12-10T17:54:51.651Z,3.28
2023-12-10T17:57:55.664Z,4.40
2023-12-10T18:00:58.340Z,3.17
2023-12-10T18:04:00.967Z,2.28
2023-12-10T18:07:03.707Z,3.00
2023-12-10T18:10:07.304Z,3.53
2023-12-10T18:13:11.287Z,2.72
2023-12-10T18:16:21.227Z,3.25
2023-12-10T18:19:23.830Z,2.78
2023-12-10T18:22:26.758Z,3.10
2023-12-10T18:25:29.693Z,2.80
2023-12-10T18:28:35.037Z,3.10
2023-12-10T18:31:37.572Z,3.00
2023-12-10T18:34:40.472Z,3.08
2023-12-10T18:37:43.187Z,2.97
2023-12-10T18:40:45.707Z,2.58
2023-12-10T18:43:49.555Z,2.97
2023-12-10T18:46:52.149Z,3.15
2023-12-10T18:49:54.761Z,2.78
2023-12-10T18:52:57.394Z,2.85
2023-12-10T18:55:59.896Z,3.15
2023-12-10T18:59:03.795Z,2.80
2023-12-10T19:02:06.934Z,3.55
2023-12-10T19:05:09.637Z,2.95
2023-12-10T19:08:12.271Z,3.70
2023-12-10T19:11:14.975Z,3.55
2023-12-10T19:14:18.867Z,3.08
2023-12-10T19:17:21.940Z,3.28
2023-12-10T19:20:25.875Z,3.60
2023-12-10T19:23:28.691Z,3.55
2023-12-10T19:26:31.181Z,3.45
2023-12-10T19:29:35.086Z,4.20
2023-12-10T19:32:37.933Z,4.70
2023-12-10T19:35:40.535Z,4.05
2023-12-10T19:38:44.661Z,5.10
2023-12-10T19:41:47.172Z,5.10
2023-12-10T19:44:50.965Z,5.05
2023-12-10T19:47:53.753Z,4.97
2023-12-10T19:50:56.394Z,5.10
2023-12-10T19:53:59.176Z,5.05
2023-12-10T19:57:01.676Z,5.28
2023-12-10T20:00:07.012Z,5.05
2023-12-10T20:03:09.546Z,5.07
2023-12-10T20:06:12.081Z,5.28
2023-12-10T20:09:14.572Z,5.47
2023-12-10T20:12:17.075Z,5.25
2023-12-10T20:15:20.882Z,6.00
2023-12-10T20:18:23.783Z,5.53
2023-12-10T20:21:26.728Z,4.88
2023-12-10T20:24:34.848Z,5.00
2023-12-10T20:27:39.432Z,5.13
2023-12-10T20:30:44.285Z,4.65
2023-12-10T20:33:46.955Z,5.10
2023-12-10T20:36:49.650Z,5.45
2023-12-10T20:39:52.788Z,5.22
2023-12-10T20:42:55.819Z,5.13
2023-12-10T20:45:59.691Z,5.10
2023-12-10T20:49:02.618Z,5.00
2023-12-10T20:52:05.869Z,4.88
2023-12-10T20:55:08.919Z,4.95
2023-12-10T20:58:13.399Z,4.63
2023-12-10T21:01:17.831Z,5.10
2023-12-10T21:04:20.702Z,5.25
2023-12-10T21:07:23.298Z,4.47
2023-12-10T21:10:25.880Z,5.03
2023-12-10T21:13:28.423Z,5.10
2023-12-10T21:16:32.293Z,6.05
2023-12-10T21:19:35.815Z,4.85
2023-12-10T21:22:38.455Z,5.07
2023-12-10T21:25:41.752Z,4.88
2023-12-10T21:28:44.286Z,5.38
2023-12-10T21:31:48.135Z,4.57
2023-12-10T21:34:50.872Z,4.45
2023-12-10T21:37:53.515Z,4.55
2023-12-10T21:40:56.040Z,3.95
2023-12-10T21:43:58.807Z,4.97
2023-12-10T21:47:02.722Z,4.32
2023-12-10T21:50:05.979Z,4.03
2023-12-10T21:53:08.987Z,3.95
2023-12-10T21:56:11.667Z,4.70
2023-12-10T21:59:14.194Z,4.72
2023-12-10T22:02:19.989Z,4.32
2023-12-10T22:05:22.517Z,3.78
2023-12-10T22:08:25.496Z,4.63
2023-12-10T22:11:28.400Z,3.97
2023-12-10T22:14:30.870Z,4.35
2023-12-10T22:17:34.956Z,5.05
2023-12-10T22:20:37.713Z,4.40
2023-12-10T22:23:41.269Z,4.15
2023-12-10T22:26:44.074Z,4.35
2023-12-10T22:29:46.611Z,3.83
2023-12-10T22:32:56.807Z,4.00
2023-12-10T22:35:59.415Z,4.05
2023-12-10T22:39:04.851Z,4.30
2023-12-10T22:42:07.646Z,4.40
2023-12-10T22:45:11.332Z,4.10
2023-12-10T22:48:15.256Z,4.25
2023-12-10T22:51:17.803Z,3.53
2023-12-10T22:54:20.325Z,3.83
2023-12-10T22:57:22.872Z,4.57
2023-12-10T23:00:25.407Z,3.75
2023-12-10T23:03:29.314Z,4.63
2023-12-10T23:06:31.883Z,4.40
2023-12-10T23:09:34.472Z,3.88
2023-12-10T23:12:37.022Z,4.43
2023-12-10T23:15:39.574Z,3.72
2023-12-10T23:18:43.745Z,3.72
2023-12-10T23:21:46.361Z,4.55
2023-12-10T23:24:49.378Z,3.85
2023-12-10T23:27:52.493Z,4.85
2023-12-10T23:30:55.080Z,3.97
2023-12-10T23:34:00.003Z,3.83
2023-12-10T23:37:02.749Z,4.00
2023-12-10T23:40:06.393Z,4.63
2023-12-10T23:43:09.061Z,4.47
2023-12-10T23:46:12.367Z,4.93
2023-12-10T23:49:16.440Z,5.32
2023-12-10T23:52:19.024Z,4.72
2023-12-10T23:55:21.945Z,4.22
2023-12-10T23:58:24.524Z,4.22
